Time;durP1;ratioP1;P1;durP2;ratioP2;P2;SDS_P1;SDS_P2;PMS_P1;PMS_P2;Temp;Humidity;BMP_temperature;BMP_pressure;BME280_temperature;BME280_humidity;BME280_pressure;Samples;Min_cycle;Max_cycle;Signal;HPM_P1;HPM_P2
2022/05/25 00:02:25;;;;;;;14.55;5.30;;;;;;;;;;4837085;29;20049;-76
2022/05/25 00:04:55;;;;;;;10.38;5.30;;;;;;;;;;4836670;29;20077;-72
2022/05/25 00:07:25;;;;;;;9.73;6.05;;;;;;;;;;4836670;29;20061;-74
2022/05/25 00:09:55;;;;;;;12.95;5.65;;;;;;;;;;4836547;29;20058;-73
2022/05/25 00:12:25;;;;;;;11.02;5.47;;;;;;;;;;4834867;29;20081;-73
2022/05/25 00:14:55;;;;;;;11.20;5.53;;;;;;;;;;4836680;29;20064;-73
2022/05/25 00:17:25;;;;;;;10.65;5.03;;;;;;;;;;4836428;29;20046;-72
2022/05/25 00:20:01;;;;;;;;;;;;;;;;;;4834722;29;20415;-73
2022/05/25 00:22:46;;;;;;;12.70;4.38;;;;;;;;;;4836234;29;19931;-74
2022/05/25 00:25:24;;;;;;;7.75;4.45;;;;;;;;;;4836255;29;20065;-74
2022/05/25 00:27:54;;;;;;;9.82;4.72;;;;;;;;;;4836352;29;20403;-73
2022/05/25 00:30:25;;;;;;;11.40;5.45;;;;;;;;;;4835726;29;20049;-73
2022/05/25 00:32:56;;;;;;;10.35;5.43;;;;;;;;;;4837010;29;20053;-72
2022/05/25 00:35:27;;;;;;;;;;;;;;;;;;4836379;29;20049;-73
2022/05/25 00:37:57;;;;;;;9.93;5.40;;;;;;;;;;4835364;29;19928;-72
2022/05/25 00:40:41;;;;;;;11.07;5.22;;;;;;;;;;4836349;29;20612;-75
2022/05/25 00:43:13;;;;;;;19.05;5.63;;;;;;;;;;4836245;29;20414;-72
2022/05/25 00:45:57;;;;;;;7.65;4.90;;;;;;;;;;4836628;29;20054;-72
2022/05/25 00:48:51;;;;;;;10.88;4.60;;;;;;;;;;4834229;29;20065;-72
2022/05/25 00:51:29;;;;;;;8.32;4.78;;;;;;;;;;4836239;29;20467;-72
2022/05/25 00:54:04;;;;;;;10.50;4.20;;;;;;;;;;4834640;29;20514;-73
2022/05/25 00:56:39;;;;;;;6.10;4.07;;;;;;;;;;4836051;29;20052;-74
2022/05/25 00:59:16;;;;;;;13.75;4.45;;;;;;;;;;4834991;29;20065;-72
2022/05/25 01:01:47;;;;;;;14.30;5.10;;;;;;;;;;4835496;29;20384;-72
2022/05/25 01:04:17;;;;;;;9.48;4.50;;;;;;;;;;4835505;29;20050;-72
2022/05/25 01:07:07;;;;;;;9.75;4.78;;;;;;;;;;4835074;29;21198;-73
2022/05/25 01:09:45;;;;;;;9.20;4.43;;;;;;;;;;4835677;29;20050;-72
2022/05/25 01:12:40;;;;;;;9.00;4.65;;;;;;;;;;4834570;29;20065;-72
2022/05/25 01:15:28;;;;;;;6.63;4.68;;;;;;;;;;4836030;29;20057;-76
2022/05/25 01:18:33;;;;;;;7.32;4.32;;;;;;;;;;4835960;29;20046;-73
2022/05/25 01:21:25;;;;;;;8.40;5.00;;;;;;;;;;4836161;29;20065;-72
2022/05/25 01:24:16;;;;;;;11.38;4.57;;;;;;;;;;4835848;29;20049;-72
2022/05/25 01:27:04;;;;;;;20.53;4.50;;;;;;;;;;4836058;29;20053;-72
2022/05/25 01:29:45;;;;;;;8.65;4.90;;;;;;;;;;4835113;29;20066;-72
2022/05/25 01:32:39;;;;;;;13.32;5.13;;;;;;;;;;4834912;29;20422;-72
2022/05/25 01:35:22;;;;;;;11.20;5.07;;;;;;;;;;4834657;29;20411;-74
2022/05/25 01:37:58;;;;;;;7.35;5.60;;;;;;;;;;4834739;29;20074;-73
2022/05/25 01:40:42;;;;;;;10.35;6.03;;;;;;;;;;4835814;29;20058;-73
2022/05/25 01:43:17;;;;;;;17.50;5.70;;;;;;;;;;4835221;29;20072;-72
2022/05/25 01:46:00;;;;;;;12.43;5.93;;;;;;;;;;4834222;29;20064;-72
2022/05/25 01:48:34;;;;;;;14.00;7.00;;;;;;;;;;4835918;29;20052;-73
2022/05/25 01:51:12;;;;;;;18.90;8.95;;;;;;;;;;4833612;29;20054;-72
2022/05/25 01:53:45;;;;;;;10.65;8.82;;;;;;;;;;4835099;29;20046;-72
2022/05/25 01:56:18;;;;;;;10.48;6.18;;;;;;;;;;4835523;29;20054;-72
2022/05/25 01:58:54;;;;;;;11.35;6.72;;;;;;;;;;4834852;29;20053;-72
2022/05/25 02:01:24;;;;;;;9.82;6.68;;;;;;;;;;4837778;29;20402;-74
2022/05/25 02:07:01;;;;;;;10.55;7.20;;;;;;;;;;4839190;29;20054;-72
2022/05/25 02:09:41;;;;;;;15.05;6.88;;;;;;;;;;4839305;29;20072;-72
2022/05/25 02:12:40;;;;;;;11.50;6.78;;;;;;;;;;4838551;29;20054;-73
2022/05/25 02:15:26;;;;;;;8.85;6.03;;;;;;;;;;4837552;29;20062;-72
2022/05/25 02:18:04;;;;;;;13.93;6.65;;;;;;;;;;4838533;29;20050;-73
2022/05/25 02:20:50;;;;;;;12.40;5.97;;;;;;;;;;4838246;29;20046;-74
2022/05/25 02:23:49;;;;;;;14.90;6.15;;;;;;;;;;4838184;29;20053;-73
2022/05/25 02:26:30;;;;;;;9.80;6.13;;;;;;;;;;4838666;29;20057;-72
2022/05/25 02:29:08;;;;;;;19.00;7.18;;;;;;;;;;4838173;29;20046;-72
2022/05/25 02:31:48;;;;;;;13.40;7.07;;;;;;;;;;4838374;29;20046;-72
2022/05/25 02:34:21;;;;;;;10.25;6.65;;;;;;;;;;4838311;29;20422;-72
2022/05/25 02:36:54;;;;;;;11.30;6.53;;;;;;;;;;4838458;29;20062;-73
2022/05/25 02:39:25;;;;;;;13.52;6.88;;;;;;;;;;4837370;29;20049;-73
2022/05/25 02:41:56;;;;;;;10.32;6.80;;;;;;;;;;4838509;29;20621;-72
2022/05/25 02:44:27;;;;;;;18.30;7.40;;;;;;;;;;4837661;29;20054;-72
2022/05/25 02:46:56;;;;;;;15.73;6.00;;;;;;;;;;4821649;29;20069;-72
2022/05/25 02:49:26;;;;;;;11.80;6.63;;;;;;;;;;4822420;29;20046;-72
2022/05/25 02:51:57;;;;;;;13.80;6.47;;;;;;;;;;4838185;29;20379;-73
2022/05/25 02:54:27;;;;;;;9.68;6.90;;;;;;;;;;4821832;29;20525;-72
2022/05/25 02:56:58;;;;;;;12.20;6.63;;;;;;;;;;4835844;29;20065;-73
2022/05/25 02:59:27;;;;;;;8.60;6.50;;;;;;;;;;4837205;29;20053;-73
2022/05/25 03:01:57;;;;;;;8.98;6.35;;;;;;;;;;4821589;29;20057;-72
2022/05/25 03:04:27;;;;;;;19.35;7.65;;;;;;;;;;4837717;29;20057;-71
2022/05/25 03:06:57;;;;;;;11.57;7.28;;;;;;;;;;4837819;29;20042;-72
2022/05/25 03:09:27;;;;;;;16.95;7.85;;;;;;;;;;4837517;29;20053;-73
2022/05/25 03:11:57;;;;;;;9.52;7.80;;;;;;;;;;4820731;29;20065;-72
2022/05/25 03:14:27;;;;;;;12.75;7.72;;;;;;;;;;4838315;29;20433;-73
2022/05/25 03:16:58;;;;;;;14.45;7.63;;;;;;;;;;4836359;29;20518;-72
2022/05/25 03:19:29;;;;;;;8.52;6.25;;;;;;;;;;4838099;29;20057;-73
2022/05/25 03:21:59;;;;;;;10.82;6.28;;;;;;;;;;4836828;29;20467;-73
2022/05/25 03:24:28;;;;;;;10.60;7.80;;;;;;;;;;4837385;29;20088;-72
2022/05/25 03:26:59;;;;;;;10.07;6.53;;;;;;;;;;4836960;29;20062;-72
2022/05/25 03:29:30;;;;;;;9.07;6.13;;;;;;;;;;4836709;29;20057;-72
2022/05/25 03:32:01;;;;;;;14.57;7.57;;;;;;;;;;4837211;29;20427;-73
2022/05/25 03:34:32;;;;;;;12.85;7.30;;;;;;;;;;4837377;29;20065;-73
2022/05/25 03:37:03;;;;;;;11.50;8.25;;;;;;;;;;4837019;29;20069;-73
2022/05/25 03:39:34;;;;;;;10.48;6.60;;;;;;;;;;4837691;29;20784;-72
2022/05/25 03:42:07;;;;;;;11.63;7.53;;;;;;;;;;4837288;29;20557;-72
2022/05/25 03:44:37;;;;;;;8.77;6.55;;;;;;;;;;4837051;29;20054;-73
2022/05/25 03:47:07;;;;;;;10.93;6.72;;;;;;;;;;4837486;29;20062;-72
2022/05/25 03:49:38;;;;;;;9.38;7.05;;;;;;;;;;4835648;29;20525;-72
2022/05/25 03:52:08;;;;;;;12.98;7.60;;;;;;;;;;4836765;29;20593;-72
2022/05/25 03:54:38;;;;;;;11.10;6.07;;;;;;;;;;4836550;29;20536;-72
2022/05/25 03:57:08;;;;;;;13.13;7.78;;;;;;;;;;4836986;29;20054;-72
2022/05/25 03:59:38;;;;;;;14.45;8.52;;;;;;;;;;4837413;29;20054;-73
2022/05/25 04:02:08;;;;;;;13.27;7.50;;;;;;;;;;4836992;29;20054;-73
2022/05/25 04:04:38;;;;;;;12.18;7.03;;;;;;;;;;4837863;29;20049;-73
2022/05/25 04:07:07;;;;;;;9.52;7.00;;;;;;;;;;4836926;29;20061;-72
2022/05/25 04:09:37;;;;;;;9.00;7.32;;;;;;;;;;4836921;29;20057;-73
2022/05/25 04:12:08;;;;;;;8.57;7.05;;;;;;;;;;4836652;29;20054;-73
2022/05/25 04:14:37;;;;;;;16.80;7.07;;;;;;;;;;4835373;29;20053;-72
2022/05/25 04:17:07;;;;;;;14.80;7.40;;;;;;;;;;4835972;29;20054;-72
2022/05/25 04:19:38;;;;;;;10.23;6.88;;;;;;;;;;4820059;29;20050;-71
2022/05/25 04:22:09;;;;;;;12.65;7.55;;;;;;;;;;4836548;29;20076;-72
2022/05/25 04:24:38;;;;;;;16.10;7.97;;;;;;;;;;4820284;29;20059;-71
2022/05/25 04:27:13;;;;;;;13.40;7.50;;;;;;;;;;4836212;29;20050;-72
2022/05/25 04:29:43;;;;;;;10.57;6.70;;;;;;;;;;4820132;29;20530;-72
2022/05/25 04:32:13;;;;;;;14.85;7.82;;;;;;;;;;4820255;29;20413;-72
2022/05/25 04:34:43;;;;;;;18.02;7.20;;;;;;;;;;4835998;29;20045;-72
2022/05/25 04:40:02;;;;;;;9.93;6.95;;;;;;;;;;4835924;29;20056;-72
2022/05/25 04:42:31;;;;;;;9.82;7.32;;;;;;;;;;4835627;29;20054;-73
2022/05/25 04:45:03;;;;;;;7.65;6.43;;;;;;;;;;4835606;29;20054;-72
2022/05/25 04:47:35;;;;;;;10.35;7.53;;;;;;;;;;4836088;29;20070;-73
2022/05/25 04:50:07;;;;;;;11.38;7.60;;;;;;;;;;4835331;29;20050;-72
2022/05/25 04:52:38;;;;;;;12.18;7.93;;;;;;;;;;4835713;29;20510;-72
2022/05/25 04:57:19;;;;;;;19.17;8.20;;;;;;;;;;4836021;29;20080;-71
2022/05/25 04:57:59;;;;;;;;;;;;;;;;;;4836406;29;20058;-72
2022/05/25 05:00:30;;;;;;;10.35;6.05;;;;;;;;;;4817803;29;19928;-73
2022/05/25 05:03:00;;;;;;;13.60;6.88;;;;;;;;;;4817336;29;20511;-72
2022/05/25 05:05:30;;;;;;;12.15;6.90;;;;;;;;;;4801089;29;20062;-72
2022/05/25 05:07:59;;;;;;;14.15;6.50;;;;;;;;;;4816981;29;20057;-72
2022/05/25 05:10:29;;;;;;;10.05;5.85;;;;;;;;;;4817637;29;20054;-73
2022/05/25 05:13:04;;;;;;;10.13;6.45;;;;;;;;;;4818132;29;20054;-72
2022/05/25 05:15:36;;;;;;;9.50;7.22;;;;;;;;;;4817501;29;20423;-72
2022/05/25 05:18:07;;;;;;;14.70;7.50;;;;;;;;;;4817990;29;20486;-72
2022/05/25 05:20:57;;;;;;;13.43;7.05;;;;;;;;;;4816555;29;20058;-72
2022/05/25 05:23:27;;;;;;;9.52;6.75;;;;;;;;;;4817012;29;20050;-72
2022/05/25 05:25:58;;;;;;;12.90;7.07;;;;;;;;;;4817334;29;20652;-73
2022/05/25 05:28:34;;;;;;;9.27;6.25;;;;;;;;;;4817320;29;20051;-72
2022/05/25 05:31:05;;;;;;;10.50;6.35;;;;;;;;;;4817323;29;20061;-72
2022/05/25 05:33:36;;;;;;;10.20;6.90;;;;;;;;;;4817761;29;20065;-72
2022/05/25 05:36:09;;;;;;;9.80;6.68;;;;;;;;;;4819154;29;20051;-72
2022/05/25 05:38:49;;;;;;;7.22;6.35;;;;;;;;;;4820542;29;20050;-71
2022/05/25 05:41:23;;;;;;;15.27;7.28;;;;;;;;;;4820881;29;20833;-72
2022/05/25 05:43:53;;;;;;;11.98;6.70;;;;;;;;;;4821014;29;20541;-73
2022/05/25 05:46:23;;;;;;;9.88;7.03;;;;;;;;;;4820387;29;20050;-72
2022/05/25 05:48:53;;;;;;;9.98;7.18;;;;;;;;;;4820373;29;20653;-71
2022/05/25 05:51:24;;;;;;;8.10;6.83;;;;;;;;;;4820577;29;20610;-72
2022/05/25 05:53:54;;;;;;;11.65;6.97;;;;;;;;;;4817964;29;20062;-72
2022/05/25 05:56:27;;;;;;;7.65;6.47;;;;;;;;;;4817903;29;20058;-72
2022/05/25 05:58:59;;;;;;;8.65;6.18;;;;;;;;;;4823921;29;20478;-72
2022/05/25 06:01:30;;;;;;;8.43;5.93;;;;;;;;;;4837056;29;20061;-73
2022/05/25 06:04:00;;;;;;;9.50;6.15;;;;;;;;;;4822327;29;20054;-72
2022/05/25 06:06:30;;;;;;;10.98;5.85;;;;;;;;;;4838095;29;20054;-73
2022/05/25 06:08:59;;;;;;;11.43;5.75;;;;;;;;;;4838423;29;20502;-72
2022/05/25 06:11:29;;;;;;;12.25;5.28;;;;;;;;;;4838270;29;20061;-73
2022/05/25 06:13:59;;;;;;;6.15;5.22;;;;;;;;;;4821244;29;20058;-72
2022/05/25 06:19:26;;;;;;;7.47;5.28;;;;;;;;;;4839228;29;20054;-72
2022/05/25 06:22:05;;;;;;;6.22;5.38;;;;;;;;;;4821866;29;20058;-72
2022/05/25 06:24:42;;;;;;;10.07;5.85;;;;;;;;;;4821300;29;20509;-71
2022/05/25 06:27:13;;;;;;;10.07;5.68;;;;;;;;;;4837697;29;20065;-71
2022/05/25 06:29:47;;;;;;;7.80;5.23;;;;;;;;;;4821587;29;20068;-72
2022/05/25 06:32:20;;;;;;;7.50;5.47;;;;;;;;;;4838518;29;20318;-72
2022/05/25 06:34:51;;;;;;;20.58;6.00;;;;;;;;;;4837589;29;20506;-72
2022/05/25 06:37:23;;;;;;;7.57;5.55;;;;;;;;;;4838408;29;20506;-72
2022/05/25 06:39:54;;;;;;;7.95;5.40;;;;;;;;;;4838253;29;20038;-73
2022/05/25 06:42:24;;;;;;;8.70;5.68;;;;;;;;;;4837754;29;20054;-72
2022/05/25 06:44:54;;;;;;;9.43;5.90;;;;;;;;;;4837529;29;20050;-72
2022/05/25 06:47:24;;;;;;;5.85;5.25;;;;;;;;;;4837560;29;20418;-72
2022/05/25 06:49:56;;;;;;;13.93;5.68;;;;;;;;;;4837887;29;20049;-72
2022/05/25 06:52:26;;;;;;;10.50;5.50;;;;;;;;;;4837940;29;20061;-72
2022/05/25 06:54:56;;;;;;;7.18;5.43;;;;;;;;;;4837757;29;20164;-72
2022/05/25 06:57:27;;;;;;;10.23;5.38;;;;;;;;;;4837440;29;20058;-72
2022/05/25 06:59:56;;;;;;;7.90;4.82;;;;;;;;;;4837324;29;20518;-72
2022/05/25 07:02:28;;;;;;;10.70;4.82;;;;;;;;;;4837964;29;20537;-72
2022/05/25 07:04:58;;;;;;;6.93;5.60;;;;;;;;;;4837650;29;20054;-73
2022/05/25 07:07:28;;;;;;;9.07;5.72;;;;;;;;;;4837518;29;20053;-72
2022/05/25 07:09:58;;;;;;;6.60;5.10;;;;;;;;;;4837677;29;20072;-73
2022/05/25 07:12:31;;;;;;;6.80;5.07;;;;;;;;;;4836772;29;20058;-72
2022/05/25 07:15:01;;;;;;;8.27;5.30;;;;;;;;;;4836524;29;20062;-72
2022/05/25 07:17:33;;;;;;;8.15;5.63;;;;;;;;;;4837455;29;20058;-72
2022/05/25 07:20:05;;;;;;;9.00;4.82;;;;;;;;;;4837886;29;20077;-72
2022/05/25 07:22:38;;;;;;;17.10;5.60;;;;;;;;;;4836984;29;20050;-72
2022/05/25 07:25:09;;;;;;;11.20;6.25;;;;;;;;;;4837479;29;20042;-72
2022/05/25 07:27:39;;;;;;;7.25;4.78;;;;;;;;;;4837335;29;20053;-72
2022/05/25 07:30:10;;;;;;;8.38;5.20;;;;;;;;;;4837443;29;20050;-73
2022/05/25 07:32:40;;;;;;;12.52;5.43;;;;;;;;;;4837346;29;20132;-72
2022/05/25 07:35:14;;;;;;;9.00;4.57;;;;;;;;;;4836734;29;20057;-72
2022/05/25 07:37:48;;;;;;;5.75;4.93;;;;;;;;;;4820781;29;20113;-72
2022/05/25 07:40:38;;;;;;;11.60;5.07;;;;;;;;;;4836882;29;20054;-71
2022/05/25 07:43:19;;;;;;;9.57;4.43;;;;;;;;;;4836996;29;20056;-72
2022/05/25 07:45:49;;;;;;;11.45;5.40;;;;;;;;;;4836545;29;20050;-73
2022/05/25 07:48:19;;;;;;;9.18;4.60;;;;;;;;;;4836693;29;20061;-73
2022/05/25 07:50:49;;;;;;;8.25;4.80;;;;;;;;;;4820326;29;20519;-72
2022/05/25 07:56:07;;;;;;;5.18;4.43;;;;;;;;;;4836791;29;20050;-71
2022/05/25 07:58:37;;;;;;;8.65;4.47;;;;;;;;;;4835529;29;20061;-72
2022/05/25 08:01:12;;;;;;;11.10;5.25;;;;;;;;;;4836962;29;20050;-73
2022/05/25 08:06:33;;;;;;;8.23;4.45;;;;;;;;;;4837102;29;20046;-72
2022/05/25 08:09:03;;;;;;;5.82;4.70;;;;;;;;;;4836336;29;20053;-73
2022/05/25 08:11:34;;;;;;;9.85;5.10;;;;;;;;;;4836516;29;20050;-72
2022/05/25 08:14:05;;;;;;;7.78;4.90;;;;;;;;;;4836244;29;20058;-77
2022/05/25 08:16:35;;;;;;;8.80;4.30;;;;;;;;;;4836541;29;20057;-72
2022/05/25 08:19:05;;;;;;;5.90;4.68;;;;;;;;;;4836255;29;20058;-71
2022/05/25 08:21:35;;;;;;;10.95;4.53;;;;;;;;;;4835925;29;20053;-73
2022/05/25 08:24:15;;;;;;;6.72;4.03;;;;;;;;;;4835995;29;20073;-73
2022/05/25 08:26:46;;;;;;;10.33;4.87;;;;;;;;;;4836055;29;20054;-73
2022/05/25 08:29:15;;;;;;;6.45;4.82;;;;;;;;;;4818938;29;20306;-72
2022/05/25 08:31:45;;;;;;;7.22;5.03;;;;;;;;;;4836041;29;20045;-71
2022/05/25 08:34:15;;;;;;;13.70;5.50;;;;;;;;;;4836012;29;20086;-72
2022/05/25 08:36:45;;;;;;;6.07;4.93;;;;;;;;;;4836383;29;20050;-72
2022/05/25 08:39:15;;;;;;;10.18;5.05;;;;;;;;;;4836936;29;20435;-73
2022/05/25 08:41:46;;;;;;;6.35;4.80;;;;;;;;;;4835301;29;20066;-72
2022/05/25 08:44:19;;;;;;;13.82;5.28;;;;;;;;;;4836052;29;20391;-71
2022/05/25 08:46:55;;;;;;;13.40;5.28;;;;;;;;;;4836306;29;20124;-72
2022/05/25 08:49:29;;;;;;;8.80;4.60;;;;;;;;;;4835758;29;20053;-73
2022/05/25 08:52:07;;;;;;;10.25;5.05;;;;;;;;;;4834795;29;20058;-74
2022/05/25 08:54:37;;;;;;;7.40;5.22;;;;;;;;;;4835040;29;20054;-73
2022/05/25 08:57:24;;;;;;;8.00;5.28;;;;;;;;;;4835250;29;20533;-72
2022/05/25 09:00:02;;;;;;;8.48;5.78;;;;;;;;;;4835210;29;20510;-75
2022/05/25 09:02:56;;;;;;;5.70;5.10;;;;;;;;;;4836423;29;20054;-71
2022/05/25 09:05:34;;;;;;;11.00;5.40;;;;;;;;;;4835186;29;20057;-72
2022/05/25 09:08:32;;;;;;;7.90;4.90;;;;;;;;;;4819657;29;20439;-71
2022/05/25 09:11:16;;;;;;;9.57;4.43;;;;;;;;;;4835127;29;20398;-73
2022/05/25 09:14:27;;;;;;;7.78;4.90;;;;;;;;;;4835473;29;20053;-72
2022/05/25 09:17:04;;;;;;;12.55;5.10;;;;;;;;;;4836146;29;20506;-73
2022/05/25 09:19:43;;;;;;;8.13;5.70;;;;;;;;;;4834940;29;20054;-73
2022/05/25 09:22:20;;;;;;;7.53;5.50;;;;;;;;;;4835832;29;20340;-72
2022/05/25 09:24:52;;;;;;;12.60;5.85;;;;;;;;;;4836121;29;20050;-73
2022/05/25 09:27:28;;;;;;;13.60;5.78;;;;;;;;;;4835183;29;20061;-72
2022/05/25 09:30:01;;;;;;;8.80;5.50;;;;;;;;;;4834794;29;20504;-72
2022/05/25 09:32:37;;;;;;;9.77;6.20;;;;;;;;;;4818260;29;20179;-73
2022/05/25 09:35:13;;;;;;;14.85;6.28;;;;;;;;;;4834874;29;20507;-73
2022/05/25 09:37:59;;;;;;;10.95;6.18;;;;;;;;;;4835278;29;20064;-73
2022/05/25 09:40:59;;;;;;;7.95;5.72;;;;;;;;;;4834954;29;20053;-73
2022/05/25 09:43:31;;;;;;;20.38;6.22;;;;;;;;;;4826434;29;20070;-73
2022/05/25 09:46:22;;;;;;;11.27;5.30;;;;;;;;;;4834948;29;20069;-73
2022/05/25 09:48:55;;;;;;;;;;;;;;;;;;4836630;29;20073;-71
2022/05/25 09:51:31;;;;;;;12.93;6.15;;;;;;;;;;4819083;29;20399;-75
2022/05/25 09:54:20;;;;;;;6.97;5.30;;;;;;;;;;4834832;29;20054;-78
2022/05/25 09:57:05;;;;;;;17.23;5.30;;;;;;;;;;4817464;29;20050;-73
2022/05/25 09:59:47;;;;;;;13.68;5.53;;;;;;;;;;4834112;29;20076;-73
2022/05/25 10:02:26;;;;;;;13.93;5.35;;;;;;;;;;4834905;29;20402;-73
2022/05/25 10:05:27;;;;;;;9.73;5.32;;;;;;;;;;4834464;29;20057;-73
2022/05/25 10:08:08;;;;;;;10.05;6.40;;;;;;;;;;4835186;29;20483;-73
2022/05/25 10:10:50;;;;;;;15.02;6.45;;;;;;;;;;4834810;29;20546;-72
2022/05/25 10:13:26;;;;;;;13.57;5.65;;;;;;;;;;4835466;29;20057;-73
2022/05/25 10:15:58;;;;;;;26.88;6.40;;;;;;;;;;4834303;29;20058;-72
2022/05/25 10:18:36;;;;;;;22.27;6.80;;;;;;;;;;4835199;29;20058;-75
2022/05/25 10:21:12;;;;;;;15.52;6.38;;;;;;;;;;4834688;29;20061;-72
2022/05/25 10:23:43;;;;;;;11.05;6.25;;;;;;;;;;4838052;29;20050;-73
2022/05/25 10:26:38;;;;;;;18.60;6.53;;;;;;;;;;4820924;29;20086;-73
2022/05/25 10:29:12;;;;;;;14.65;5.82;;;;;;;;;;4838250;29;20053;-72
2022/05/25 10:37:34;;;;;;;16.23;5.85;;;;;;;;;;4838322;29;19928;-73
2022/05/25 10:40:07;;;;;;;10.75;5.40;;;;;;;;;;4836625;29;20053;-74
2022/05/25 10:42:44;;;;;;;11.70;5.63;;;;;;;;;;4839228;29;20046;-73
2022/05/25 10:45:28;;;;;;;13.15;5.70;;;;;;;;;;4821797;29;20049;-74
2022/05/25 10:48:21;;;;;;;17.63;5.60;;;;;;;;;;4837531;29;20077;-73
2022/05/25 10:50:59;;;;;;;29.05;5.35;;;;;;;;;;4837762;29;20058;-77
2022/05/25 10:56:59;;;;;;;13.43;5.63;;;;;;;;;;4837160;29;20060;-73
2022/05/25 11:00:03;;;;;;;8.05;5.00;;;;;;;;;;4837199;29;20054;-76
2022/05/25 11:03:09;;;;;;;15.73;5.30;;;;;;;;;;4831712;29;20075;-76
2022/05/25 11:05:46;;;;;;;10.02;4.70;;;;;;;;;;4837101;29;20050;-74
2022/05/25 11:08:39;;;;;;;15.15;5.22;;;;;;;;;;4821361;29;20050;-73
2022/05/25 11:11:15;;;;;;;7.25;4.72;;;;;;;;;;4838021;29;20068;-74
2022/05/25 11:13:55;;;;;;;10.00;4.80;;;;;;;;;;4819928;29;20085;-73
2022/05/25 11:16:34;;;;;;;15.75;5.03;;;;;;;;;;4837375;29;20105;-73
2022/05/25 11:19:13;;;;;;;15.65;6.72;;;;;;;;;;4837503;29;20533;-69
2022/05/25 11:22:17;;;;;;;12.30;4.57;;;;;;;;;;4836720;29;20545;-71
2022/05/25 11:25:19;;;;;;;9.57;3.95;;;;;;;;;;4837493;29;20534;-72
2022/05/25 11:27:52;;;;;;;17.38;4.53;;;;;;;;;;4836713;29;20061;-74
2022/05/25 11:30:42;;;;;;;9.57;3.88;;;;;;;;;;4835029;29;20061;-74
2022/05/25 11:33:13;;;;;;;8.98;3.85;;;;;;;;;;4836358;29;20065;-75
2022/05/25 11:35:46;;;;;;;11.43;4.07;;;;;;;;;;4836281;29;20054;-73
2022/05/25 11:38:26;;;;;;;8.23;3.70;;;;;;;;;;4836279;29;20651;-72
2022/05/25 11:41:01;;;;;;;8.35;3.70;;;;;;;;;;4835728;29;20053;-75
2022/05/25 11:43:50;;;;;;;5.47;3.70;;;;;;;;;;4837038;29;20057;-72
2022/05/25 11:46:40;;;;;;;17.30;4.20;;;;;;;;;;4837549;29;20050;-75
2022/05/25 11:49:58;;;;;;;11.27;3.53;;;;;;;;;;4836786;29;20132;-73
2022/05/25 11:53:00;;;;;;;9.27;3.70;;;;;;;;;;4837004;29;20068;-73
2022/05/25 11:55:36;;;;;;;8.65;3.72;;;;;;;;;;4836340;29;20058;-72
2022/05/25 11:58:26;;;;;;;8.48;3.75;;;;;;;;;;4836568;29;20415;-73
2022/05/25 12:01:22;;;;;;;13.82;4.00;;;;;;;;;;4836269;29;20069;-73
2022/05/25 12:04:12;;;;;;;9.88;3.55;;;;;;;;;;4835304;29;20537;-73
2022/05/25 12:07:17;;;;;;;10.43;3.80;;;;;;;;;;4836706;29;20046;-74
2022/05/25 12:10:01;;;;;;;8.77;3.17;;;;;;;;;;4806347;29;20054;-73
2022/05/25 12:12:50;;;;;;;11.45;3.33;;;;;;;;;;4836391;29;21160;-73
2022/05/25 12:15:26;;;;;;;24.00;5.22;;;;;;;;;;4836519;29;20053;-74
2022/05/25 12:18:14;;;;;;;19.77;5.30;;;;;;;;;;4836501;29;20049;-74
2022/05/25 12:21:02;;;;;;;23.13;6.13;;;;;;;;;;4836249;29;20061;-73
2022/05/25 12:24:11;;;;;;;15.35;4.70;;;;;;;;;;4836410;29;20046;-73
2022/05/25 12:26:42;;;;;;;18.92;4.90;;;;;;;;;;4815232;29;20426;-78
2022/05/25 12:29:20;;;;;;;18.52;4.00;;;;;;;;;;4835071;29;20430;-73
2022/05/25 12:31:56;;;;;;;12.27;3.75;;;;;;;;;;4835925;29;20430;-71
2022/05/25 12:34:36;;;;;;;17.17;4.13;;;;;;;;;;4836524;29;20050;-71
2022/05/25 12:37:08;;;;;;;21.23;4.22;;;;;;;;;;4819665;29;20046;-70
2022/05/25 12:39:47;;;;;;;7.70;3.72;;;;;;;;;;4836140;29;20053;-75
2022/05/25 12:42:23;;;;;;;9.82;3.53;;;;;;;;;;4835933;29;20058;-71
2022/05/25 12:50:55;;;;;;;15.93;3.70;;;;;;;;;;4836215;29;20415;-79
2022/05/25 12:53:31;;;;;;;6.68;3.35;;;;;;;;;;4835854;29;20076;-73
2022/05/25 12:56:11;;;;;;;13.75;3.83;;;;;;;;;;4835834;29;20434;-74
2022/05/25 12:58:44;;;;;;;17.05;3.97;;;;;;;;;;4835457;29;20062;-73
2022/05/25 13:01:15;;;;;;;8.63;3.50;;;;;;;;;;4835472;29;20061;-72
2022/05/25 13:03:47;;;;;;;12.83;3.57;;;;;;;;;;4818676;29;20056;-73
2022/05/25 13:06:21;;;;;;;15.82;3.90;;;;;;;;;;4836123;29;20061;-72
2022/05/25 13:09:01;;;;;;;16.92;3.85;;;;;;;;;;4835940;29;20057;-73
2022/05/25 13:11:52;;;;;;;13.23;3.53;;;;;;;;;;4835606;29;20524;-71
2022/05/25 13:14:25;;;;;;;13.27;4.07;;;;;;;;;;4835323;29;20077;-72
2022/05/25 13:17:00;;;;;;;10.85;4.20;;;;;;;;;;4835269;29;20061;-74
2022/05/25 13:19:45;;;;;;;19.17;4.40;;;;;;;;;;4835947;29;20514;-73
2022/05/25 13:22:20;;;;;;;7.30;4.07;;;;;;;;;;4835628;29;20069;-74
2022/05/25 13:25:02;;;;;;;9.30;3.22;;;;;;;;;;4835404;29;20506;-73
2022/05/25 13:27:39;;;;;;;24.48;4.07;;;;;;;;;;4835524;29;20054;-72
2022/05/25 13:30:24;;;;;;;11.13;3.75;;;;;;;;;;4835833;29;20460;-76
2022/05/25 13:33:00;;;;;;;17.33;4.00;;;;;;;;;;4848164;29;20054;-73
2022/05/25 13:35:42;;;;;;;13.95;3.70;;;;;;;;;;4826228;29;20054;-74
2022/05/25 13:38:43;;;;;;;12.82;3.60;;;;;;;;;;4835821;29;20054;-74
2022/05/25 13:41:50;;;;;;;10.10;3.80;;;;;;;;;;4835940;29;20061;-73
2022/05/25 13:44:27;;;;;;;8.82;3.00;;;;;;;;;;4835547;29;20419;-74
2022/05/25 13:46:58;;;;;;;11.88;3.65;;;;;;;;;;4835661;29;20418;-73
2022/05/25 13:49:57;;;;;;;12.05;3.22;;;;;;;;;;4834955;29;20050;-75
2022/05/25 13:52:31;;;;;;;21.88;4.43;;;;;;;;;;4835803;29;20528;-74
2022/05/25 13:55:24;;;;;;;23.08;4.93;;;;;;;;;;4835482;29;20049;-72
2022/05/25 13:57:59;;;;;;;11.93;3.50;;;;;;;;;;4838862;29;20529;-73
2022/05/25 14:00:36;;;;;;;18.23;4.97;;;;;;;;;;4820717;29;20073;-73
2022/05/25 14:03:18;;;;;;;5.30;3.00;;;;;;;;;;4820780;29;20051;-78
2022/05/25 14:05:58;;;;;;;9.85;3.30;;;;;;;;;;4820521;29;20415;-74
2022/05/25 14:11:43;;;;;;;16.90;6.63;;;;;;;;;;4820245;29;20050;-73
2022/05/25 14:14:26;;;;;;;11.68;3.08;;;;;;;;;;4820497;29;20084;-73
2022/05/25 14:17:00;;;;;;;9.40;3.05;;;;;;;;;;4820976;29;20058;-73
2022/05/25 14:19:46;;;;;;;7.95;3.47;;;;;;;;;;4820107;29;20054;-73
2022/05/25 14:22:21;;;;;;;11.05;3.40;;;;;;;;;;4820250;29;20054;-73
2022/05/25 14:24:56;;;;;;;16.77;3.80;;;;;;;;;;4819721;29;20047;-73
2022/05/25 14:27:36;;;;;;;10.68;3.05;;;;;;;;;;4820695;29;20046;-75
2022/05/25 14:30:33;;;;;;;25.55;3.85;;;;;;;;;;4819491;29;20057;-73
2022/05/25 14:33:09;;;;;;;6.45;3.08;;;;;;;;;;4820235;29;20058;-77
2022/05/25 14:35:45;;;;;;;8.55;3.05;;;;;;;;;;4819688;29;20054;-73
2022/05/25 14:38:16;;;;;;;6.65;3.28;;;;;;;;;;4819566;29;20076;-72
2022/05/25 14:41:23;;;;;;;;;;;;;;;;;;4820444;29;20050;-72
2022/05/25 14:43:53;;;;;;;5.97;2.72;;;;;;;;;;4803485;29;19925;-73
2022/05/25 14:46:29;;;;;;;14.43;4.65;;;;;;;;;;4819572;29;20070;-73
2022/05/25 14:49:03;;;;;;;16.48;3.53;;;;;;;;;;4819432;29;20058;-72
2022/05/25 14:51:42;;;;;;;11.13;3.50;;;;;;;;;;4820070;29;20503;-74
2022/05/25 14:54:20;;;;;;;46.50;7.82;;;;;;;;;;4819849;29;20106;-72
2022/05/25 14:56:52;;;;;;;10.65;3.15;;;;;;;;;;4819098;29;20051;-71
2022/05/25 14:59:33;;;;;;;15.65;3.63;;;;;;;;;;4829268;29;20073;-73
2022/05/25 15:02:05;;;;;;;12.68;3.58;;;;;;;;;;4837665;29;20387;-77
2022/05/25 15:04:41;;;;;;;8.32;3.13;;;;;;;;;;4837877;29;20053;-74
2022/05/25 15:07:22;;;;;;;15.50;3.47;;;;;;;;;;4836816;29;20046;-72
2022/05/25 15:09:55;;;;;;;27.50;4.05;;;;;;;;;;4837250;29;20050;-73
2022/05/25 15:12:31;;;;;;;12.27;2.88;;;;;;;;;;4837805;29;20045;-75
2022/05/25 15:18:33;;;;;;;11.82;3.90;;;;;;;;;;4837510;29;20559;-73
2022/05/25 15:21:15;;;;;;;15.00;3.83;;;;;;;;;;4837574;29;20053;-73
2022/05/25 15:24:14;;;;;;;9.40;3.40;;;;;;;;;;4836552;29;20049;-73
2022/05/25 15:27:03;;;;;;;3.75;2.72;;;;;;;;;;4836910;29;20514;-73
2022/05/25 15:29:54;;;;;;;5.82;2.60;;;;;;;;;;4836827;29;20053;-72
2022/05/25 15:32:25;;;;;;;18.67;4.97;;;;;;;;;;4836318;29;20064;-73
2022/05/25 15:34:56;;;;;;;9.15;3.38;;;;;;;;;;4821291;29;20069;-74
2022/05/25 15:37:28;;;;;;;9.13;3.10;;;;;;;;;;4837239;29;20058;-73
2022/05/25 15:39:59;;;;;;;6.70;2.50;;;;;;;;;;4837057;29;20114;-73
2022/05/25 15:42:50;;;;;;;8.85;2.80;;;;;;;;;;4836412;29;20065;-73
2022/05/25 15:45:25;;;;;;;12.23;4.78;;;;;;;;;;4836972;29;20045;-72
2022/05/25 15:47:57;;;;;;;11.30;3.05;;;;;;;;;;4836742;29;20058;-72
2022/05/25 15:50:29;;;;;;;16.98;3.30;;;;;;;;;;4837162;29;20537;-73
2022/05/25 15:53:00;;;;;;;5.82;2.38;;;;;;;;;;4836636;29;20426;-72
2022/05/25 15:55:31;;;;;;;9.70;2.90;;;;;;;;;;4836779;29;20053;-72
2022/05/25 15:58:02;;;;;;;6.38;2.65;;;;;;;;;;4836343;29;20058;-74
2022/05/25 16:00:39;;;;;;;9.60;2.40;;;;;;;;;;4818049;29;20062;-73
2022/05/25 16:03:20;;;;;;;5.80;2.30;;;;;;;;;;4819282;29;20054;-73
2022/05/25 16:05:56;;;;;;;14.05;2.83;;;;;;;;;;4818333;29;20415;-72
2022/05/25 16:11:22;;;;;;;8.35;2.80;;;;;;;;;;4821259;29;20411;-72
2022/05/25 16:13:53;;;;;;;6.03;2.38;;;;;;;;;;4817621;29;20093;-72